createdAt,value
2018-03-21T00:04:19.920Z,102281.47
2018-03-21T00:09:21.311Z,102292.61
2018-03-21T00:14:22.781Z,102281.07
2018-03-21T00:19:24.939Z,102265.62
2018-03-21T00:24:26.352Z,102301.28
2018-03-21T00:29:27.858Z,102303.38
2018-03-21T00:34:29.367Z,102302.11
2018-03-21T00:39:31.476Z,102311.30
2018-03-21T00:44:33.707Z,102308.16
2018-03-21T00:49:35.200Z,102310.78
2018-03-21T00:54:36.620Z,102312.06
2018-03-21T00:59:37.999Z,102305.66
2018-03-21T01:04:39.431Z,102305.42
2018-03-21T01:09:40.880Z,102308.66
2018-03-21T01:14:42.236Z,102301.97
2018-03-21T01:19:43.671Z,102298.43
2018-03-21T01:24:45.054Z,102306.36
2018-03-21T01:29:46.459Z,102316.36
2018-03-21T01:34:47.913Z,102316.36
2018-03-21T01:39:49.342Z,102315.33
2018-03-21T01:44:50.715Z,102319.81
2018-03-21T01:49:52.071Z,102315.47
2018-03-21T01:54:54.228Z,102318.33
2018-03-21T01:59:55.598Z,102313.80
2018-03-21T02:04:56.955Z,102319.64
2018-03-21T02:09:59.108Z,102318.45
2018-03-21T02:15:00.471Z,102324.47
2018-03-21T02:20:01.872Z,102321.45
2018-03-21T02:25:03.352Z,102318.44
2018-03-21T02:30:04.758Z,102319.09
2018-03-21T02:35:06.195Z,102310.04
2018-03-21T02:40:07.741Z,102315.41
2018-03-21T02:45:09.136Z,102317.28
2018-03-21T02:50:10.553Z,102317.89
2018-03-21T02:55:12.119Z,102311.90
2018-03-21T03:00:13.766Z,102321.41
2018-03-21T03:05:15.250Z,102323.58
2018-03-21T03:10:16.659Z,102332.16
2018-03-21T03:15:18.108Z,102320.03
2018-03-21T03:20:19.480Z,102321.45
2018-03-21T03:25:20.855Z,102320.91
2018-03-21T03:30:22.301Z,102322.66
2018-03-21T03:35:23.759Z,102315.33
2018-03-21T03:40:25.130Z,102308.93
2018-03-21T03:45:27.220Z,102320.30
2018-03-21T03:50:28.673Z,102325.05
2018-03-21T03:55:30.090Z,102328.52
2018-03-21T04:00:31.475Z,102323.80
2018-03-21T04:05:32.859Z,102319.95
2018-03-21T04:10:34.632Z,102310.92
2018-03-21T04:15:36.108Z,102320.80
2018-03-21T04:20:37.544Z,102322.13
2018-03-21T04:25:39.018Z,102327.84
2018-03-21T04:30:40.393Z,102324.66
2018-03-21T04:35:42.132Z,102312.09
2018-03-21T04:40:45.191Z,102312.03
2018-03-21T04:45:46.834Z,102305.64
2018-03-21T04:50:50.006Z,102311.63
2018-03-21T04:55:55.952Z,102313.91
2018-03-21T05:00:58.323Z,102311.23
2018-03-21T05:06:00.208Z,102295.39
2018-03-21T05:11:01.827Z,102313.68
2018-03-21T05:16:03.278Z,102314.87
2018-03-21T05:21:05.281Z,102316.88
2018-03-21T05:26:07.495Z,102314.27
2018-03-21T05:31:09.772Z,102308.94
2018-03-21T05:36:11.140Z,102313.50
2018-03-21T05:41:13.233Z,102313.72
2018-03-21T05:46:14.565Z,102327.53
2018-03-21T05:51:16.160Z,102332.41
2018-03-21T05:56:17.506Z,102335.84
2018-03-21T06:01:19.184Z,102337.05
2018-03-21T06:06:20.820Z,102345.16
2018-03-21T06:11:25.453Z,102344.77
2018-03-21T06:16:26.825Z,102355.34
2018-03-21T06:21:28.160Z,102360.66
2018-03-21T06:26:29.491Z,102359.70
2018-03-21T06:31:30.817Z,102356.61
2018-03-21T06:36:32.147Z,102346.46
2018-03-21T06:41:33.553Z,102350.25
2018-03-21T06:46:34.946Z,102349.41
2018-03-21T06:51:36.291Z,102353.84
2018-03-21T06:56:37.663Z,102356.56
2018-03-21T07:01:39.093Z,102366.01
2018-03-21T07:06:41.210Z,102366.45
2018-03-21T07:11:43.501Z,102357.23
2018-03-21T07:16:45.845Z,102359.99
2018-03-21T07:21:47.790Z,102355.95
2018-03-21T07:26:49.156Z,102367.66
2018-03-21T07:31:50.566Z,102364.25
2018-03-21T07:36:51.926Z,102371.25
2018-03-21T07:41:53.331Z,102372.48
2018-03-21T07:46:54.663Z,102390.56
2018-03-21T07:51:56.032Z,102390.70
2018-03-21T07:56:57.441Z,102386.18
2018-03-21T08:02:00.623Z,102383.44
2018-03-21T08:07:01.975Z,102400.08
2018-03-21T08:12:03.344Z,102406.47
2018-03-21T08:17:04.700Z,102412.45
2018-03-21T08:22:06.048Z,102413.44
2018-03-21T08:27:08.166Z,102406.78
2018-03-21T08:32:10.295Z,102406.84
2018-03-21T08:37:11.673Z,102409.58
2018-03-21T08:42:13.137Z,102410.41
2018-03-21T08:47:15.109Z,102403.18
2018-03-21T08:52:17.430Z,102401.79
2018-03-21T08:57:21.338Z,102412.32
2018-03-21T09:02:23.752Z,102421.77
2018-03-21T09:07:26.160Z,102418.71
2018-03-21T09:12:28.601Z,102426.30
2018-03-21T09:17:31.895Z,102425.04
2018-03-21T09:22:34.156Z,102406.98
2018-03-21T09:27:36.218Z,102401.39
2018-03-21T09:32:37.637Z,102407.14
2018-03-21T09:37:39.032Z,102395.84
2018-03-21T09:42:40.432Z,102401.58
2018-03-21T09:47:41.808Z,102397.50
2018-03-21T09:52:43.841Z,102397.95
2018-03-21T09:57:45.954Z,102393.25
2018-03-21T10:02:49.194Z,102392.47
2018-03-21T10:07:50.555Z,102408.14
2018-03-21T10:12:51.887Z,102407.97
2018-03-21T10:17:53.775Z,102411.38
2018-03-21T10:22:56.181Z,102406.58
2018-03-21T10:27:58.515Z,102403.52
2018-03-21T10:32:59.898Z,102409.73
2018-03-21T10:38:01.209Z,102398.81
2018-03-21T10:43:02.651Z,102399.67
2018-03-21T10:48:04.980Z,102404.73
2018-03-21T10:53:07.261Z,102402.44
2018-03-21T10:58:08.952Z,102396.02
2018-03-21T11:03:11.357Z,102407.80
2018-03-21T11:08:13.485Z,102419.16
2018-03-21T11:13:15.375Z,102417.84
2018-03-21T11:18:17.379Z,102404.80
2018-03-21T11:23:18.935Z,102386.55
2018-03-21T11:28:20.289Z,102378.73
2018-03-21T11:33:21.621Z,102376.99
2018-03-21T11:38:23.080Z,102369.57
2018-03-21T11:43:24.525Z,102352.61
2018-03-21T11:48:27.373Z,102359.55
2018-03-21T11:53:28.768Z,102351.69
2018-03-21T11:58:30.139Z,102349.12
2018-03-21T12:03:32.277Z,102355.19
2018-03-21T12:08:33.696Z,102351.67
2018-03-21T12:13:35.072Z,102345.53
2018-03-21T12:18:36.456Z,102335.55
2018-03-21T12:23:37.869Z,102336.00
2018-03-21T12:28:39.669Z,102318.17
2018-03-21T12:33:41.874Z,102305.59
2018-03-21T12:38:43.241Z,102308.43
2018-03-21T12:43:44.688Z,102313.68
2018-03-21T12:48:46.079Z,102320.66
2018-03-21T12:53:47.467Z,102312.37
2018-03-21T12:58:49.633Z,102291.37
2018-03-21T13:03:51.160Z,102293.14
2018-03-21T13:08:52.554Z,102295.14
2018-03-21T13:13:53.964Z,102291.55
2018-03-21T13:18:56.043Z,102300.77
2018-03-21T13:23:57.443Z,102304.27
2018-03-21T13:28:58.816Z,102307.69
2018-03-21T13:34:00.176Z,102306.52
2018-03-21T13:39:01.581Z,102299.92
2018-03-21T13:44:02.996Z,102288.38
2018-03-21T13:49:04.388Z,102278.93
2018-03-21T13:54:05.783Z,102273.16
2018-03-21T13:59:07.164Z,102249.77
2018-03-21T14:04:08.592Z,102239.83
2018-03-21T14:09:10.764Z,102248.44
2018-03-21T14:14:12.209Z,102233.75
2018-03-21T14:19:13.570Z,102232.73
2018-03-21T14:24:15.633Z,102215.33
2018-03-21T14:29:16.991Z,102221.78
2018-03-21T14:34:18.565Z,102218.86
2018-03-21T14:39:20.346Z,102211.94
2018-03-21T14:44:22.451Z,102210.07
2018-03-21T14:49:24.198Z,102214.52
2018-03-21T14:54:26.476Z,102200.97
2018-03-21T14:59:28.904Z,102185.21
2018-03-21T15:04:30.980Z,102177.77
2018-03-21T15:09:32.345Z,102174.97
2018-03-21T15:14:33.739Z,102159.95
2018-03-21T15:19:35.074Z,102148.17
2018-03-21T15:24:36.414Z,102150.02
2018-03-21T15:29:37.842Z,102150.15
2018-03-21T15:34:39.333Z,102137.81
2018-03-21T15:39:40.746Z,102154.84
2018-03-21T15:44:42.184Z,102151.33
2018-03-21T15:49:43.629Z,102151.11
2018-03-21T15:54:45.752Z,102154.95
2018-03-21T15:59:47.865Z,102156.81
2018-03-21T16:04:49.236Z,102141.28
2018-03-21T16:09:50.589Z,102142.78
2018-03-21T16:14:51.958Z,102152.84
2018-03-21T16:19:53.340Z,102148.16
2018-03-21T16:24:54.727Z,102138.59
2018-03-21T16:29:56.128Z,102137.73
2018-03-21T16:34:57.477Z,102133.82
2018-03-21T16:39:58.854Z,102134.77
2018-03-21T16:45:00.252Z,102131.30
2018-03-21T16:50:01.614Z,102135.66
2018-03-21T16:55:03.049Z,102131.31
2018-03-21T17:00:06.592Z,102128.69
2018-03-21T17:05:08.144Z,102120.00
2018-03-21T17:10:09.619Z,102118.73
2018-03-21T17:15:11.042Z,102117.41
2018-03-21T17:20:12.437Z,102106.97
2018-03-21T17:25:13.846Z,102126.03
2018-03-21T17:30:15.252Z,102126.09
2018-03-21T17:35:16.630Z,102123.05
2018-03-21T17:40:18.747Z,102124.29
2018-03-21T17:45:20.184Z,102113.89
2018-03-21T17:50:21.533Z,102109.56
2018-03-21T17:55:22.897Z,102110.83
2018-03-21T18:00:24.472Z,102098.67
2018-03-21T18:05:25.873Z,102100.40
2018-03-21T18:10:27.263Z,102101.64
2018-03-21T18:15:28.663Z,102096.01
2018-03-21T18:20:30.034Z,102093.42
2018-03-21T18:25:31.425Z,102087.30
2018-03-21T18:30:32.790Z,102080.75
2018-03-21T18:35:34.153Z,102079.05
2018-03-21T18:40:35.565Z,102076.84
2018-03-21T18:45:36.884Z,102069.04
2018-03-21T18:50:38.268Z,102044.30
2018-03-21T18:55:39.620Z,102059.56
2018-03-21T19:00:40.978Z,102045.20
2018-03-21T19:05:42.409Z,102046.97
2018-03-21T19:10:44.028Z,102050.86
2018-03-21T19:15:45.388Z,102037.00
2018-03-21T19:20:46.755Z,102038.31
2018-03-21T19:25:48.132Z,102031.37
2018-03-21T19:30:49.993Z,102021.37
2018-03-21T19:35:51.809Z,102029.60
2018-03-21T19:40:53.271Z,102019.58
2018-03-21T19:45:55.148Z,102010.93
2018-03-21T19:50:57.679Z,101991.84
2018-03-21T19:55:59.517Z,101995.71
2018-03-21T20:01:01.622Z,101991.81
2018-03-21T20:06:03.982Z,101980.51
2018-03-21T20:11:07.706Z,101976.66
2018-03-21T20:16:09.742Z,101972.72
2018-03-21T20:21:11.402Z,101960.47
2018-03-21T20:26:12.935Z,101950.49
2018-03-21T20:31:15.075Z,101939.25
2018-03-21T20:36:16.436Z,101928.79
2018-03-21T20:41:18.618Z,101927.41
2018-03-21T20:46:20.018Z,101916.19
2018-03-21T20:51:21.396Z,101899.73
2018-03-21T20:56:22.796Z,101896.27
2018-03-21T21:01:24.271Z,101895.83
2018-03-21T21:06:25.663Z,101894.91
2018-03-21T21:11:27.059Z,101872.33
2018-03-21T21:16:28.426Z,101884.52
2018-03-21T21:21:30.305Z,101882.33
2018-03-21T21:26:31.652Z,101886.20
2018-03-21T21:31:33.002Z,101880.11
2018-03-21T21:36:34.353Z,101882.69
2018-03-21T21:41:36.498Z,101868.83
2018-03-21T21:46:37.888Z,101862.82
2018-03-21T21:51:39.362Z,101857.98
2018-03-21T21:56:40.799Z,101858.42
2018-03-21T22:01:42.260Z,101846.73
2018-03-21T22:06:43.688Z,101835.08
2018-03-21T22:11:45.168Z,101826.47
2018-03-21T22:16:46.543Z,101822.92
2018-03-21T22:21:47.903Z,101811.27
2018-03-21T22:26:49.992Z,101809.56
2018-03-21T22:31:51.396Z,101797.47
2018-03-21T22:36:52.784Z,101781.89
2018-03-21T22:41:54.861Z,101765.41
2018-03-21T22:46:56.248Z,101763.67
2018-03-21T22:51:57.596Z,101758.52
2018-03-21T22:56:58.907Z,101748.10
2018-03-21T23:02:00.232Z,101750.27
2018-03-21T23:07:01.591Z,101747.66
2018-03-21T23:12:02.976Z,101734.22
2018-03-21T23:17:04.325Z,101739.40
2018-03-21T23:22:05.700Z,101723.40
2018-03-21T23:27:07.058Z,101725.16
2018-03-21T23:32:08.575Z,101712.55
2018-03-21T23:37:10.006Z,101707.38
2018-03-21T23:42:11.449Z,101713.41
2018-03-21T23:47:12.842Z,101705.64
2018-03-21T23:52:14.246Z,101683.99
2018-03-21T23:57:15.614Z,101660.19
